CheckWX is a tool to help pilots better visualize weather data.  It is not intended as a substitute for an official pre-flight weather briefing.

00:34:08 UTC

VTBO TAF
Trat Airport
Thailand
TAF VTBO 012300Z 0200/0224 14005KT 9000 FEW020 SCT035 BECMG 0202/0204 23010KT TEMPO 0208/0213 14010G20KT 4000 TSRA FEW018CB SCT030 BKN100 BECMG 0216/0218 14005KT

Apr-2@
00:00 UTC

Apr-2 @ 00:00 UTC

Apr-2@
02:00 UTC

Apr-2 @ 02:00 UTC

TAF VTBO 012300Z 0200/0224 14005KT 9000 FEW020 SCT035
Wind
  • 140° at 5 KTS
Cloud Levels
  • Few at 2,000' AGL
  • Scattered at 3,500' AGL

Apr-2@
02:00 UTC

Apr-2 @ 02:00 UTC

Apr-2@
16:00 UTC

Apr-2 @ 16:00 UTC

BECMG 0202/0204 23010KT

Becoming

Becoming Conditions expected by Thu, Apr 2, 2020 @ 04:00 UTC

Wind
  • 230° at 10 KTS
Cloud Levels
  • Few at 2,000' AGL
  • Scattered at 3,500' AGL

Apr-2@
08:00 UTC

Apr-2 @ 08:00 UTC

Apr-2@
13:00 UTC

Apr-2 @ 13:00 UTC

TEMPO 0208/0213 14010G20KT 4000 TSRA FEW018CB SCT030 BKN100

Temporary

Temporary Changes expected for less than half the time period

Wind
  • 140° at 10 KTS
  • {Gusting to 20 KTS
Conditions
Thunderstorm, Rain
Cloud Levels
  • Few at 1,800' AGL
  • Scattered at 3,000' AGL
  • Broken at 10,000' AGL

Apr-2@
16:00 UTC

Apr-2 @ 16:00 UTC

Apr-3@
00:00 UTC

Apr-3 @ 00:00 UTC

BECMG 0216/0218 14005KT

Becoming

Becoming Conditions expected by Thu, Apr 2, 2020 @ 18:00 UTC

Wind
  • 140° at 5 KTS
Cloud Levels
  • Few at 2,000' AGL
  • Scattered at 3,500' AGL